Denver City, Texas
Current Conditions -  °F | °C
As of 5:15 PM on Thursday 20 Nov 2014 (Local Time) from KGNC Reporting Station
Clear Clear  
Wind Chill: 67°   Ceiling: Unl
Heat Index: 67°   Visibility: 10mi
Dew Point: 13°   Wind: 3mph
Humidity: 12%   Direction: 230°SW
Pressure: 29.96"   Gusts: NA
Location:  32.96°N, 102.82°W
Report Text: KGNC 202315Z AUTO 23003KT 10SM CLR 19/M11 A2996 RMK AO2 T01921108
Loading
Personal Weather Stations






























Interactive Weather Map New forecast layout! Learn more

10-Day Weather Forecast

Advertisements
Track Severe Weather on mobile